Alexander City, AL

10:24 PM CST on February 07, 2016 (GMT -0600)
Russell

Weather History for KALX - May, 2014

Change the Weather History Date:

Saturday, May 3, 2014

  Actual Average (KAUO) Record (KAUO)
Temperature  
Mean Temperature 62 °F -  
Max Temperature 80 °F - 89 °F (1959)
Min Temperature 45 °F - 39 °F (1961)
Degree Days  
Heating Degree Days 2    
Growing Degree Days 12 (Base 50)    
Moisture  
Dew Point 43 °F    
Average Humidity 55    
Maximum Humidity 85    
Minimum Humidity 20    
Precipitation  
Precipitation 0.00 in - 8.43 in (2007)
Month to date precipitation  
Year to date precipitation  
Sea Level Pressure  
Sea Level Pressure 30.04 in    
Wind  
Wind Speed 2 mph (WNW)    
Max Wind Speed 14 mph    
Max Gust Speed 20 mph    
Visibility 10 miles    
Events      
T = Trace of Precipitation, MM = Missing Value Source: NWS Daily Summary

Daily Weather History Graph

Daily Weather History Graph

Search for Another Location

Airport or City:

Trip Planner

Search our weather history database for the weather conditions in past years. The results will help you decide how hot, cold, wet, or windy it might be!

Date:

Astronomy

May. 03, 2014 Rise Set
Actual Time 5:54 AM CDT 7:27 PM CDT
Civil Twilight 5:28 AM CDT 7:53 PM CDT
Nautical Twilight 4:56 AM CDT 8:25 PM CDT
Astronomical Twilight 4:23 AM CDT 8:58 PM CDT
Moon 9:26 AM CDT (5/3) 11:31 PM CDT (5/3)
Length of Visible Light 14h 25m
Length of Day
13h 32m
Waxing Crescent, 20% of the Moon is Illuminated
May 3
Waxing Crescent
May 6
First Quarter
May 14
Full
May 21
Last Quarter
May 28
New

Hourly Weather History & Observations

Time (CDT) Temp. Dew Point Humidity Pressure Visibility Wind Dir Wind Speed Gust Speed Precip Events Conditions
12:15 AM 55.4 °F 49.5 °F 80% 30.00 in 10.0 mi Calm Calm - N/A   Clear
12:35 AM 55.2 °F 49.8 °F 82% 30.00 in 10.0 mi Calm Calm - N/A   Clear
12:55 AM 52.7 °F 47.7 °F 83% 30.00 in 10.0 mi Calm Calm - N/A   Clear
1:15 AM 51.1 °F 46.0 °F 83% 30.00 in 10.0 mi Calm Calm - N/A   Clear
1:35 AM 50.2 °F 45.7 °F 85% 30.00 in 10.0 mi Calm Calm - N/A   Clear
1:55 AM 50.7 °F 46.2 °F 85% 30.00 in 10.0 mi Calm Calm - N/A   Clear
2:15 AM 50.2 °F 45.5 °F 84% 30.00 in 10.0 mi Calm Calm - N/A   Clear
2:35 AM 50.2 °F 45.5 °F 84% 30.00 in 10.0 mi Calm Calm - N/A   Clear
2:55 AM 50.2 °F 45.1 °F 83% 30.00 in 10.0 mi Calm Calm - N/A   Clear
3:15 AM 50.2 °F 45.5 °F 84% 30.00 in 10.0 mi Calm Calm - N/A   Clear
3:35 AM 50.2 °F 45.7 °F 85% 30.01 in 10.0 mi Calm Calm - N/A   Clear
3:55 AM 50.2 °F 45.5 °F 84% 30.00 in 10.0 mi Calm Calm - N/A   Clear
4:15 AM 50.2 °F 45.7 °F 85% 30.00 in 10.0 mi Calm Calm - N/A   Clear
4:35 AM 47.7 °F 43.2 °F 84% 30.01 in 10.0 mi Calm Calm - N/A   Clear
4:55 AM 47.7 °F 43.3 °F 85% 30.01 in 10.0 mi Calm Calm - N/A   Clear
5:15 AM 47.7 °F 43.3 °F 85% 30.01 in 10.0 mi Calm Calm - N/A   Clear
5:35 AM 47.7 °F 43.2 °F 84% 30.01 in 10.0 mi Calm Calm - N/A   Clear
5:55 AM 45.1 °F 41.0 °F 85% 30.02 in 10.0 mi Calm Calm - N/A   Clear
6:15 AM 45.0 °F 40.6 °F 85% 30.03 in 10.0 mi Calm Calm - N/A   Clear
6:35 AM 49.8 °F 45.3 °F 84% 30.03 in 10.0 mi Calm Calm - N/A   Clear
6:55 AM 50.2 °F 45.1 °F 83% 30.03 in 10.0 mi Calm Calm - N/A   Clear
7:15 AM 50.2 °F 45.5 °F 84% 30.04 in 10.0 mi Calm Calm - N/A   Clear
7:55 AM 55.6 °F 47.8 °F 75% 30.04 in 10.0 mi Calm Calm - N/A   Clear
8:15 AM 58.1 °F 48.4 °F 70% 30.05 in 10.0 mi Calm Calm - N/A   Clear
8:35 AM 62.1 °F 49.3 °F 63% 30.05 in 10.0 mi Calm Calm - N/A   Clear
8:55 AM 65.5 °F 45.9 °F 49% 30.06 in 10.0 mi Calm Calm - N/A   Clear
9:15 AM 68.9 °F 46.9 °F 45% 30.06 in 10.0 mi WSW 3.5 mph - N/A   Clear
9:35 AM 70.7 °F 43.0 °F 37% 30.07 in 10.0 mi NW 4.6 mph - N/A   Clear
9:55 AM 70.7 °F 36.0 °F 28% 30.07 in 10.0 mi West 8.1 mph - N/A   Clear
10:15 AM 73.0 °F 38.1 °F 28% 30.07 in 10.0 mi NW 10.4 mph 17.3 mph N/A   Clear
10:35 AM 73.8 °F 37.6 °F 27% 30.08 in 10.0 mi West 8.1 mph - N/A   Clear
11:15 AM 75.6 °F 36.3 °F 24% 30.08 in 10.0 mi WNW 10.4 mph - N/A   Clear
11:35 AM 75.6 °F 34.5 °F 22% 30.07 in 10.0 mi West 13.8 mph 19.6 mph N/A   Clear
11:55 AM 75.6 °F 34.5 °F 22% 30.07 in 10.0 mi WNW 9.2 mph - N/A   Clear
12:15 PM 75.6 °F 34.3 °F 22% 30.06 in 10.0 mi West 5.8 mph 19.6 mph N/A   Clear
12:35 PM 77.0 °F 36.5 °F 23% 30.06 in 10.0 mi NW 10.4 mph 16.1 mph N/A   Clear
12:55 PM 78.1 °F 36.7 °F 22% 30.05 in 10.0 mi WNW 11.5 mph - N/A   Clear
1:15 PM 78.1 °F 35.6 °F 22% 30.05 in 10.0 mi NW 6.9 mph 16.1 mph N/A   Clear
1:35 PM 78.1 °F 35.6 °F 22% 30.04 in 10.0 mi WNW 10.4 mph - N/A   Clear
1:55 PM 78.1 °F 36.0 °F 22% 30.04 in 10.0 mi West 8.1 mph - N/A   Clear
2:15 PM 78.1 °F 35.4 °F 21% 30.04 in 10.0 mi WNW 6.9 mph - N/A   Clear
2:35 PM 78.1 °F 34.2 °F 20% 30.03 in 10.0 mi WNW 11.5 mph 17.3 mph N/A   Scattered Clouds
2:55 PM 78.6 °F 35.6 °F 21% 30.03 in 10.0 mi WNW 10.4 mph 17.3 mph N/A   Clear
3:15 PM 79.0 °F 37.0 °F 22% 30.02 in 10.0 mi West 11.5 mph - N/A   Clear
3:35 PM 78.6 °F 36.7 °F 22% 30.01 in 10.0 mi West 11.5 mph 16.1 mph N/A   Clear
3:55 PM 78.4 °F 35.2 °F 21% 30.01 in 10.0 mi WSW 6.9 mph - N/A   Clear
4:15 PM 79.5 °F 34.3 °F 20% 30.01 in 10.0 mi NW 9.2 mph - N/A   Clear
4:35 PM 80.2 °F 35.8 °F 20% 30.01 in 10.0 mi West 8.1 mph - N/A   Clear
4:55 PM 79.9 °F 34.7 °F 20% 30.01 in 10.0 mi NW 6.9 mph - N/A   Clear
5:15 PM 80.6 °F 36.5 °F 21% 30.02 in 10.0 mi WNW 9.2 mph - N/A   Clear
5:35 PM 78.3 °F 34.2 °F 20% 30.02 in 10.0 mi WSW 6.9 mph - N/A   Clear
5:55 PM 78.1 °F 34.2 °F 20% 30.02 in 10.0 mi West 5.8 mph - N/A   Clear
6:15 PM 78.1 °F 35.2 °F 21% 30.02 in 10.0 mi WNW 9.2 mph 16.1 mph N/A   Clear
6:35 PM 78.1 °F 37.2 °F 23% 30.03 in 10.0 mi WNW 5.8 mph - N/A   Clear
6:55 PM 75.6 °F 38.5 °F 26% 30.03 in 10.0 mi Calm Calm - N/A   Clear
7:15 PM 75.2 °F 48.9 °F 39% 30.04 in 10.0 mi Calm Calm - N/A   Clear
7:35 PM 70.7 °F 52.0 °F 51% 30.05 in 10.0 mi Calm Calm - N/A   Clear
7:55 PM 68.0 °F 50.7 °F 54% 30.05 in 10.0 mi Calm Calm - N/A   Clear
8:15 PM 63.5 °F 50.0 °F 61% 30.06 in 10.0 mi Calm Calm - N/A   Clear
8:35 PM 62.6 °F 50.9 °F 66% 30.06 in 10.0 mi Calm Calm - N/A   Clear
8:55 PM 61.7 °F 51.3 °F 69% 30.06 in 10.0 mi Calm Calm - N/A   Clear
9:15 PM 60.3 °F 50.9 °F 71% 30.07 in 10.0 mi Calm Calm - N/A   Clear
9:35 PM 60.3 °F 51.3 °F 72% 30.07 in 10.0 mi Calm Calm - N/A   Clear
9:55 PM 60.3 °F 51.8 °F 74% 30.08 in 10.0 mi Calm Calm - N/A   Clear
10:15 PM 57.7 °F 50.7 °F 77% 30.08 in 10.0 mi Calm Calm - N/A   Clear
10:35 PM 57.7 °F 51.1 °F 78% 30.08 in 10.0 mi Calm Calm - N/A   Clear
10:55 PM 57.7 °F 51.1 °F 78% 30.08 in 10.0 mi Calm Calm - N/A   Clear
11:15 PM 57.7 °F 51.8 °F 81% 30.09 in 10.0 mi Calm Calm - N/A   Clear
11:35 PM 57.7 °F 51.8 °F 81% 30.09 in 10.0 mi Calm Calm - N/A   Clear
11:55 PM 57.7 °F 52.0 °F 81% 30.09 in 10.0 mi Calm Calm - N/A   Clear